sensor_id;sensor_type;location;lat;lon;timestamp;temperature;humidity
39951;DHT22;25629;51.444;-2.606;2024-02-26T00:01:27;6.80;1.00
39951;DHT22;25629;51.444;-2.606;2024-02-26T00:03:53;6.70;3.60
39951;DHT22;25629;51.444;-2.606;2024-02-26T00:06:20;6.60;8.20
39951;DHT22;25629;51.444;-2.606;2024-02-26T00:08:46;6.60;3.90
39951;DHT22;25629;51.444;-2.606;2024-02-26T00:11:12;6.60;1.00
39951;DHT22;25629;51.444;-2.606;2024-02-26T00:13:37;6.60;1.00
39951;DHT22;25629;51.444;-2.606;2024-02-26T00:16:06;6.60;4.10
39951;DHT22;25629;51.444;-2.606;2024-02-26T00:18:33;6.50;2.20
39951;DHT22;25629;51.444;-2.606;2024-02-26T00:20:58;6.50;1.00
39951;DHT22;25629;51.444;-2.606;2024-02-26T00:23:24;6.50;2.50
39951;DHT22;25629;51.444;-2.606;2024-02-26T00:25:49;6.50;2.50
39951;DHT22;25629;51.444;-2.606;2024-02-26T00:28:15;6.40;6.00
39951;DHT22;25629;51.444;-2.606;2024-02-26T00:30:40;6.50;9.20
39951;DHT22;25629;51.444;-2.606;2024-02-26T00:33:06;6.40;5.10
39951;DHT22;25629;51.444;-2.606;2024-02-26T00:35:32;6.50;1.00
39951;DHT22;25629;51.444;-2.606;2024-02-26T00:37:57;6.50;1.00
39951;DHT22;25629;51.444;-2.606;2024-02-26T00:40:24;6.50;1.00
39951;DHT22;25629;51.444;-2.606;2024-02-26T00:42:49;6.40;1.00
39951;DHT22;25629;51.444;-2.606;2024-02-26T00:45:15;6.40;1.00
39951;DHT22;25629;51.444;-2.606;2024-02-26T00:47:41;6.50;1.00
39951;DHT22;25629;51.444;-2.606;2024-02-26T00:50:08;6.40;1.00
39951;DHT22;25629;51.444;-2.606;2024-02-26T00:52:34;6.40;1.00
39951;DHT22;25629;51.444;-2.606;2024-02-26T00:55:00;6.50;1.00
39951;DHT22;25629;51.444;-2.606;2024-02-26T00:57:25;6.40;1.00
39951;DHT22;25629;51.444;-2.606;2024-02-26T00:59:51;6.40;1.00
39951;DHT22;25629;51.444;-2.606;2024-02-26T01:02:17;6.40;1.00
39951;DHT22;25629;51.444;-2.606;2024-02-26T01:04:42;6.30;1.00
39951;DHT22;25629;51.444;-2.606;2024-02-26T01:07:08;6.30;1.00
39951;DHT22;25629;51.444;-2.606;2024-02-26T01:09:34;6.30;1.00
39951;DHT22;25629;51.444;-2.606;2024-02-26T01:11:59;6.30;1.00
39951;DHT22;25629;51.444;-2.606;2024-02-26T01:14:25;6.30;1.00
39951;DHT22;25629;51.444;-2.606;2024-02-26T01:16:51;6.30;1.00
39951;DHT22;25629;51.444;-2.606;2024-02-26T01:19:16;6.30;1.00
39951;DHT22;25629;51.444;-2.606;2024-02-26T01:21:42;6.30;1.00
39951;DHT22;25629;51.444;-2.606;2024-02-26T01:24:08;6.30;1.00
39951;DHT22;25629;51.444;-2.606;2024-02-26T01:26:33;6.30;1.00
39951;DHT22;25629;51.444;-2.606;2024-02-26T01:28:59;6.40;1.00
39951;DHT22;25629;51.444;-2.606;2024-02-26T01:31:24;6.50;1.00
39951;DHT22;25629;51.444;-2.606;2024-02-26T01:33:50;6.40;1.00
39951;DHT22;25629;51.444;-2.606;2024-02-26T01:36:16;6.40;1.00
39951;DHT22;25629;51.444;-2.606;2024-02-26T01:38:41;6.40;1.00
39951;DHT22;25629;51.444;-2.606;2024-02-26T01:41:07;6.40;1.00
39951;DHT22;25629;51.444;-2.606;2024-02-26T01:43:32;6.40;1.00
39951;DHT22;25629;51.444;-2.606;2024-02-26T01:45:58;6.40;1.00
39951;DHT22;25629;51.444;-2.606;2024-02-26T01:48:24;6.30;1.00
39951;DHT22;25629;51.444;-2.606;2024-02-26T01:50:49;6.30;1.00
39951;DHT22;25629;51.444;-2.606;2024-02-26T01:53:15;6.40;1.00
39951;DHT22;25629;51.444;-2.606;2024-02-26T01:55:41;6.40;1.00
39951;DHT22;25629;51.444;-2.606;2024-02-26T01:58:07;6.40;1.00
39951;DHT22;25629;51.444;-2.606;2024-02-26T02:00:33;6.40;1.00
39951;DHT22;25629;51.444;-2.606;2024-02-26T02:02:58;6.40;1.00
39951;DHT22;25629;51.444;-2.606;2024-02-26T02:05:24;6.40;1.00
39951;DHT22;25629;51.444;-2.606;2024-02-26T02:07:50;6.30;1.00
39951;DHT22;25629;51.444;-2.606;2024-02-26T02:10:16;6.40;1.00
39951;DHT22;25629;51.444;-2.606;2024-02-26T02:12:43;6.40;1.00
39951;DHT22;25629;51.444;-2.606;2024-02-26T02:15:09;6.50;1.00
39951;DHT22;25629;51.444;-2.606;2024-02-26T02:17:35;6.40;1.00
39951;DHT22;25629;51.444;-2.606;2024-02-26T02:20:01;6.40;1.00
39951;DHT22;25629;51.444;-2.606;2024-02-26T02:22:27;6.40;1.00
39951;DHT22;25629;51.444;-2.606;2024-02-26T02:24:53;6.40;1.00
39951;DHT22;25629;51.444;-2.606;2024-02-26T02:27:19;6.40;1.00
39951;DHT22;25629;51.444;-2.606;2024-02-26T02:29:45;6.30;1.00
39951;DHT22;25629;51.444;-2.606;2024-02-26T02:32:10;6.40;1.00
39951;DHT22;25629;51.444;-2.606;2024-02-26T02:34:36;6.30;1.00
39951;DHT22;25629;51.444;-2.606;2024-02-26T02:37:02;6.30;1.00
39951;DHT22;25629;51.444;-2.606;2024-02-26T02:39:28;6.40;1.00
39951;DHT22;25629;51.444;-2.606;2024-02-26T02:41:53;6.30;1.00
39951;DHT22;25629;51.444;-2.606;2024-02-26T02:44:19;6.30;1.00
39951;DHT22;25629;51.444;-2.606;2024-02-26T02:46:44;6.30;99.90
39951;DHT22;25629;51.444;-2.606;2024-02-26T02:49:10;6.30;99.90
39951;DHT22;25629;51.444;-2.606;2024-02-26T02:51:36;6.30;99.90
39951;DHT22;25629;51.444;-2.606;2024-02-26T02:54:02;6.30;99.90
39951;DHT22;25629;51.444;-2.606;2024-02-26T02:56:28;6.30;99.90
39951;DHT22;25629;51.444;-2.606;2024-02-26T02:58:53;6.30;99.90
39951;DHT22;25629;51.444;-2.606;2024-02-26T03:01:19;6.30;99.90
39951;DHT22;25629;51.444;-2.606;2024-02-26T03:03:44;6.30;99.90
39951;DHT22;25629;51.444;-2.606;2024-02-26T03:06:10;6.30;99.90
39951;DHT22;25629;51.444;-2.606;2024-02-26T03:08:35;6.30;99.90
39951;DHT22;25629;51.444;-2.606;2024-02-26T03:11:05;6.30;99.90
39951;DHT22;25629;51.444;-2.606;2024-02-26T03:13:31;6.30;99.90
39951;DHT22;25629;51.444;-2.606;2024-02-26T03:15:56;6.30;99.90
39951;DHT22;25629;51.444;-2.606;2024-02-26T03:18:22;6.30;99.90
39951;DHT22;25629;51.444;-2.606;2024-02-26T03:20:48;6.20;99.90
39951;DHT22;25629;51.444;-2.606;2024-02-26T03:23:14;6.20;99.90
39951;DHT22;25629;51.444;-2.606;2024-02-26T03:25:42;6.20;99.90
39951;DHT22;25629;51.444;-2.606;2024-02-26T03:28:07;6.10;98.70
39951;DHT22;25629;51.444;-2.606;2024-02-26T03:30:33;6.20;10.40
39951;DHT22;25629;51.444;-2.606;2024-02-26T03:32:59;6.10;12.40
39951;DHT22;25629;51.444;-2.606;2024-02-26T03:35:25;6.10;1.00
39951;DHT22;25629;51.444;-2.606;2024-02-26T03:37:51;6.10;18.70
39951;DHT22;25629;51.444;-2.606;2024-02-26T03:40:17;6.20;1.00
39951;DHT22;25629;51.444;-2.606;2024-02-26T03:42:44;6.20;1.00
39951;DHT22;25629;51.444;-2.606;2024-02-26T03:45:10;6.20;1.00
39951;DHT22;25629;51.444;-2.606;2024-02-26T03:47:37;6.10;99.90
39951;DHT22;25629;51.444;-2.606;2024-02-26T03:50:02;6.10;99.90
39951;DHT22;25629;51.444;-2.606;2024-02-26T03:52:29;6.10;99.90
39951;DHT22;25629;51.444;-2.606;2024-02-26T03:54:54;6.10;99.90
39951;DHT22;25629;51.444;-2.606;2024-02-26T03:57:20;6.10;99.90
39951;DHT22;25629;51.444;-2.606;2024-02-26T03:59:46;6.10;99.90
39951;DHT22;25629;51.444;-2.606;2024-02-26T04:02:11;6.10;99.90
39951;DHT22;25629;51.444;-2.606;2024-02-26T04:04:37;6.00;1.00
39951;DHT22;25629;51.444;-2.606;2024-02-26T04:07:03;6.00;1.00
39951;DHT22;25629;51.444;-2.606;2024-02-26T04:09:30;6.00;1.00
39951;DHT22;25629;51.444;-2.606;2024-02-26T04:11:56;5.90;99.90
39951;DHT22;25629;51.444;-2.606;2024-02-26T04:14:21;5.90;1.00
39951;DHT22;25629;51.444;-2.606;2024-02-26T04:16:47;5.90;95.30
39951;DHT22;25629;51.444;-2.606;2024-02-26T04:19:16;5.90;46.00
39951;DHT22;25629;51.444;-2.606;2024-02-26T04:21:42;5.80;99.90
39951;DHT22;25629;51.444;-2.606;2024-02-26T04:24:08;5.80;99.90
39951;DHT22;25629;51.444;-2.606;2024-02-26T04:26:34;5.80;99.90
39951;DHT22;25629;51.444;-2.606;2024-02-26T04:28:59;5.80;99.90
39951;DHT22;25629;51.444;-2.606;2024-02-26T04:31:25;5.80;99.90
39951;DHT22;25629;51.444;-2.606;2024-02-26T04:33:51;5.80;99.90
39951;DHT22;25629;51.444;-2.606;2024-02-26T04:36:17;5.80;93.00
39951;DHT22;25629;51.444;-2.606;2024-02-26T04:38:43;5.80;99.90
39951;DHT22;25629;51.444;-2.606;2024-02-26T04:41:09;5.80;99.90
39951;DHT22;25629;51.444;-2.606;2024-02-26T04:43:35;5.80;99.90
39951;DHT22;25629;51.444;-2.606;2024-02-26T04:46:09;5.90;99.90
39951;DHT22;25629;51.444;-2.606;2024-02-26T04:48:38;5.90;99.90
39951;DHT22;25629;51.444;-2.606;2024-02-26T04:51:04;5.90;99.90
39951;DHT22;25629;51.444;-2.606;2024-02-26T04:53:29;5.90;99.90
39951;DHT22;25629;51.444;-2.606;2024-02-26T04:55:55;5.90;99.90
39951;DHT22;25629;51.444;-2.606;2024-02-26T04:58:21;6.00;99.90
39951;DHT22;25629;51.444;-2.606;2024-02-26T05:00:46;6.00;99.90
39951;DHT22;25629;51.444;-2.606;2024-02-26T05:03:12;6.00;99.90
39951;DHT22;25629;51.444;-2.606;2024-02-26T05:05:40;6.00;99.90
39951;DHT22;25629;51.444;-2.606;2024-02-26T05:08:06;6.00;99.90
39951;DHT22;25629;51.444;-2.606;2024-02-26T05:10:33;6.00;99.90
39951;DHT22;25629;51.444;-2.606;2024-02-26T05:12:58;6.00;99.90
39951;DHT22;25629;51.444;-2.606;2024-02-26T05:15:24;6.00;99.90
39951;DHT22;25629;51.444;-2.606;2024-02-26T05:17:49;6.10;99.90
39951;DHT22;25629;51.444;-2.606;2024-02-26T05:20:15;6.10;99.90
39951;DHT22;25629;51.444;-2.606;2024-02-26T05:22:40;6.10;99.90
39951;DHT22;25629;51.444;-2.606;2024-02-26T05:25:06;6.10;99.90
39951;DHT22;25629;51.444;-2.606;2024-02-26T05:27:32;6.10;99.90
39951;DHT22;25629;51.444;-2.606;2024-02-26T05:29:57;6.10;99.90
39951;DHT22;25629;51.444;-2.606;2024-02-26T05:32:23;6.20;99.90
39951;DHT22;25629;51.444;-2.606;2024-02-26T05:34:48;6.20;99.90
39951;DHT22;25629;51.444;-2.606;2024-02-26T05:37:14;6.20;99.90
39951;DHT22;25629;51.444;-2.606;2024-02-26T05:39:39;6.10;99.90
39951;DHT22;25629;51.444;-2.606;2024-02-26T05:42:05;6.20;99.90
39951;DHT22;25629;51.444;-2.606;2024-02-26T05:44:31;6.20;99.90
39951;DHT22;25629;51.444;-2.606;2024-02-26T05:46:56;6.30;99.90
39951;DHT22;25629;51.444;-2.606;2024-02-26T05:49:22;6.20;99.90
39951;DHT22;25629;51.444;-2.606;2024-02-26T05:51:48;6.10;99.90
39951;DHT22;25629;51.444;-2.606;2024-02-26T05:54:13;6.10;1.00
39951;DHT22;25629;51.444;-2.606;2024-02-26T05:56:39;6.10;1.00
39951;DHT22;25629;51.444;-2.606;2024-02-26T05:59:05;6.10;1.00
39951;DHT22;25629;51.444;-2.606;2024-02-26T06:01:30;6.10;99.90
39951;DHT22;25629;51.444;-2.606;2024-02-26T06:03:56;6.10;1.00
39951;DHT22;25629;51.444;-2.606;2024-02-26T06:06:22;6.10;99.90
39951;DHT22;25629;51.444;-2.606;2024-02-26T06:08:48;6.10;99.90
39951;DHT22;25629;51.444;-2.606;2024-02-26T06:11:14;6.10;99.90
39951;DHT22;25629;51.444;-2.606;2024-02-26T06:13:40;6.10;99.90
39951;DHT22;25629;51.444;-2.606;2024-02-26T06:16:07;6.20;99.90
39951;DHT22;25629;51.444;-2.606;2024-02-26T06:18:33;6.10;99.90
39951;DHT22;25629;51.444;-2.606;2024-02-26T06:20:58;6.10;99.90
39951;DHT22;25629;51.444;-2.606;2024-02-26T06:23:24;6.10;99.90
39951;DHT22;25629;51.444;-2.606;2024-02-26T06:25:51;6.20;99.90
39951;DHT22;25629;51.444;-2.606;2024-02-26T06:28:17;6.20;31.30
39951;DHT22;25629;51.444;-2.606;2024-02-26T06:30:43;6.20;99.90
39951;DHT22;25629;51.444;-2.606;2024-02-26T06:33:08;6.20;99.90
39951;DHT22;25629;51.444;-2.606;2024-02-26T06:35:34;6.20;99.90
39951;DHT22;25629;51.444;-2.606;2024-02-26T06:38:00;6.20;99.90
39951;DHT22;25629;51.444;-2.606;2024-02-26T06:40:25;6.20;99.90
39951;DHT22;25629;51.444;-2.606;2024-02-26T06:42:51;6.20;99.90
39951;DHT22;25629;51.444;-2.606;2024-02-26T06:45:17;6.20;99.90
39951;DHT22;25629;51.444;-2.606;2024-02-26T06:47:43;6.20;99.90
39951;DHT22;25629;51.444;-2.606;2024-02-26T06:50:11;6.20;99.90
39951;DHT22;25629;51.444;-2.606;2024-02-26T06:52:36;6.30;99.90
39951;DHT22;25629;51.444;-2.606;2024-02-26T06:55:02;6.30;99.90
39951;DHT22;25629;51.444;-2.606;2024-02-26T06:57:28;6.30;99.90
39951;DHT22;25629;51.444;-2.606;2024-02-26T06:59:53;6.30;99.90
39951;DHT22;25629;51.444;-2.606;2024-02-26T07:02:19;6.20;99.90
39951;DHT22;25629;51.444;-2.606;2024-02-26T07:04:44;6.30;99.90
39951;DHT22;25629;51.444;-2.606;2024-02-26T07:07:10;6.30;99.90
39951;DHT22;25629;51.444;-2.606;2024-02-26T07:09:36;6.30;99.90
39951;DHT22;25629;51.444;-2.606;2024-02-26T07:12:01;6.20;99.90
39951;DHT22;25629;51.444;-2.606;2024-02-26T07:14:27;6.30;99.90
39951;DHT22;25629;51.444;-2.606;2024-02-26T07:16:53;6.30;99.90
39951;DHT22;25629;51.444;-2.606;2024-02-26T07:19:19;6.30;99.90
39951;DHT22;25629;51.444;-2.606;2024-02-26T07:21:44;6.30;99.90
39951;DHT22;25629;51.444;-2.606;2024-02-26T07:24:10;6.30;99.90
39951;DHT22;25629;51.444;-2.606;2024-02-26T07:26:36;6.30;99.90
39951;DHT22;25629;51.444;-2.606;2024-02-26T07:29:01;6.20;99.90
39951;DHT22;25629;51.444;-2.606;2024-02-26T07:31:27;6.20;99.90
39951;DHT22;25629;51.444;-2.606;2024-02-26T07:33:52;6.30;99.90
39951;DHT22;25629;51.444;-2.606;2024-02-26T07:36:18;6.30;99.90
39951;DHT22;25629;51.444;-2.606;2024-02-26T07:38:44;6.30;65.40
39951;DHT22;25629;51.444;-2.606;2024-02-26T07:41:10;6.30;38.80
39951;DHT22;25629;51.444;-2.606;2024-02-26T07:43:36;6.40;59.70
39951;DHT22;25629;51.444;-2.606;2024-02-26T07:46:02;6.30;1.00
39951;DHT22;25629;51.444;-2.606;2024-02-26T07:48:28;6.40;1.00
39951;DHT22;25629;51.444;-2.606;2024-02-26T07:50:53;6.40;99.90
39951;DHT22;25629;51.444;-2.606;2024-02-26T07:53:19;6.40;99.90
39951;DHT22;25629;51.444;-2.606;2024-02-26T07:55:44;6.40;99.90
39951;DHT22;25629;51.444;-2.606;2024-02-26T07:58:10;6.40;99.90
39951;DHT22;25629;51.444;-2.606;2024-02-26T08:00:35;6.40;99.90
39951;DHT22;25629;51.444;-2.606;2024-02-26T08:03:01;6.40;99.90
39951;DHT22;25629;51.444;-2.606;2024-02-26T08:05:27;6.40;99.90
39951;DHT22;25629;51.444;-2.606;2024-02-26T08:07:53;6.50;99.90
39951;DHT22;25629;51.444;-2.606;2024-02-26T08:10:20;6.50;98.80
39951;DHT22;25629;51.444;-2.606;2024-02-26T08:12:45;6.40;99.90
39951;DHT22;25629;51.444;-2.606;2024-02-26T08:15:11;6.50;99.90
39951;DHT22;25629;51.444;-2.606;2024-02-26T08:17:37;6.50;96.70
39951;DHT22;25629;51.444;-2.606;2024-02-26T08:20:03;6.50;99.90
39951;DHT22;25629;51.444;-2.606;2024-02-26T08:22:29;6.50;99.90
39951;DHT22;25629;51.444;-2.606;2024-02-26T08:24:55;6.40;99.90
39951;DHT22;25629;51.444;-2.606;2024-02-26T08:27:20;6.40;99.90
39951;DHT22;25629;51.444;-2.606;2024-02-26T08:29:46;6.50;99.90
39951;DHT22;25629;51.444;-2.606;2024-02-26T08:32:12;6.40;65.60
39951;DHT22;25629;51.444;-2.606;2024-02-26T08:34:37;6.30;99.90
39951;DHT22;25629;51.444;-2.606;2024-02-26T08:37:03;6.30;99.90
39951;DHT22;25629;51.444;-2.606;2024-02-26T08:39:28;6.50;74.40
39951;DHT22;25629;51.444;-2.606;2024-02-26T08:41:54;6.50;1.00
39951;DHT22;25629;51.444;-2.606;2024-02-26T08:44:20;6.50;99.90
39951;DHT22;25629;51.444;-2.606;2024-02-26T08:46:45;6.50;1.00
39951;DHT22;25629;51.444;-2.606;2024-02-26T08:49:11;6.60;1.00
39951;DHT22;25629;51.444;-2.606;2024-02-26T08:51:43;6.60;99.90
39951;DHT22;25629;51.444;-2.606;2024-02-26T08:54:11;6.60;29.40
39951;DHT22;25629;51.444;-2.606;2024-02-26T08:56:37;6.70;1.00
39951;DHT22;25629;51.444;-2.606;2024-02-26T08:59:02;6.70;1.00
39951;DHT22;25629;51.444;-2.606;2024-02-26T09:01:32;6.80;99.90
39951;DHT22;25629;51.444;-2.606;2024-02-26T09:03:58;6.80;37.40
39951;DHT22;25629;51.444;-2.606;2024-02-26T09:06:23;6.90;1.00
39951;DHT22;25629;51.444;-2.606;2024-02-26T09:08:49;7.10;1.00
39951;DHT22;25629;51.444;-2.606;2024-02-26T09:11:15;7.10;1.00
39951;DHT22;25629;51.444;-2.606;2024-02-26T09:13:41;7.00;99.90
39951;DHT22;25629;51.444;-2.606;2024-02-26T09:16:07;7.10;99.90
39951;DHT22;25629;51.444;-2.606;2024-02-26T09:18:33;7.10;99.90
39951;DHT22;25629;51.444;-2.606;2024-02-26T09:20:58;7.10;99.90
39951;DHT22;25629;51.444;-2.606;2024-02-26T09:23:24;7.10;99.90
39951;DHT22;25629;51.444;-2.606;2024-02-26T09:25:50;7.10;1.00
39951;DHT22;25629;51.444;-2.606;2024-02-26T09:28:15;7.10;99.90
39951;DHT22;25629;51.444;-2.606;2024-02-26T09:30:43;7.10;99.90
39951;DHT22;25629;51.444;-2.606;2024-02-26T09:33:08;7.20;99.90
39951;DHT22;25629;51.444;-2.606;2024-02-26T09:35:34;7.20;1.00
39951;DHT22;25629;51.444;-2.606;2024-02-26T09:38:00;7.20;1.00
39951;DHT22;25629;51.444;-2.606;2024-02-26T09:40:25;7.30;1.00
39951;DHT22;25629;51.444;-2.606;2024-02-26T09:42:53;7.40;1.00
39951;DHT22;25629;51.444;-2.606;2024-02-26T09:45:24;7.50;99.90
39951;DHT22;25629;51.444;-2.606;2024-02-26T09:47:50;7.50;1.00
39951;DHT22;25629;51.444;-2.606;2024-02-26T09:50:18;7.50;79.50
39951;DHT22;25629;51.444;-2.606;2024-02-26T09:52:48;7.60;99.90
39951;DHT22;25629;51.444;-2.606;2024-02-26T09:55:13;7.60;99.90
39951;DHT22;25629;51.444;-2.606;2024-02-26T09:57:40;7.60;99.90
39951;DHT22;25629;51.444;-2.606;2024-02-26T10:00:07;7.70;1.00
39951;DHT22;25629;51.444;-2.606;2024-02-26T10:02:36;7.80;99.90
39951;DHT22;25629;51.444;-2.606;2024-02-26T10:05:02;7.80;99.90
39951;DHT22;25629;51.444;-2.606;2024-02-26T10:07:30;7.80;99.90
39951;DHT22;25629;51.444;-2.606;2024-02-26T10:09:56;7.80;24.60
39951;DHT22;25629;51.444;-2.606;2024-02-26T10:12:21;7.80;1.00
39951;DHT22;25629;51.444;-2.606;2024-02-26T10:14:47;7.90;1.00
39951;DHT22;25629;51.444;-2.606;2024-02-26T10:17:13;7.90;1.00
39951;DHT22;25629;51.444;-2.606;2024-02-26T10:19:39;7.90;1.00
39951;DHT22;25629;51.444;-2.606;2024-02-26T10:22:04;8.10;1.00
39951;DHT22;25629;51.444;-2.606;2024-02-26T10:24:30;8.20;99.90
39951;DHT22;25629;51.444;-2.606;2024-02-26T10:26:56;8.30;99.90
39951;DHT22;25629;51.444;-2.606;2024-02-26T10:29:24;8.20;99.90
39951;DHT22;25629;51.444;-2.606;2024-02-26T10:31:53;8.00;93.70
39951;DHT22;25629;51.444;-2.606;2024-02-26T10:34:19;8.10;99.90
39951;DHT22;25629;51.444;-2.606;2024-02-26T10:36:44;8.20;99.90
39951;DHT22;25629;51.444;-2.606;2024-02-26T10:39:13;8.30;99.90
39951;DHT22;25629;51.444;-2.606;2024-02-26T10:41:43;8.30;99.90
39951;DHT22;25629;51.444;-2.606;2024-02-26T10:44:09;8.10;99.90
39951;DHT22;25629;51.444;-2.606;2024-02-26T10:46:44;8.00;99.90
39951;DHT22;25629;51.444;-2.606;2024-02-26T10:49:15;8.00;99.90
39951;DHT22;25629;51.444;-2.606;2024-02-26T10:51:44;7.90;99.90
39951;DHT22;25629;51.444;-2.606;2024-02-26T10:54:11;7.90;99.90
39951;DHT22;25629;51.444;-2.606;2024-02-26T10:56:38;7.90;99.90
39951;DHT22;25629;51.444;-2.606;2024-02-26T10:59:04;7.90;99.90
39951;DHT22;25629;51.444;-2.606;2024-02-26T11:01:32;8.00;99.90
39951;DHT22;25629;51.444;-2.606;2024-02-26T11:03:58;8.10;99.90
39951;DHT22;25629;51.444;-2.606;2024-02-26T11:06:24;8.20;99.90
39951;DHT22;25629;51.444;-2.606;2024-02-26T11:08:51;8.20;99.90
39951;DHT22;25629;51.444;-2.606;2024-02-26T11:11:17;8.20;99.90
39951;DHT22;25629;51.444;-2.606;2024-02-26T11:13:47;8.30;99.90
39951;DHT22;25629;51.444;-2.606;2024-02-26T11:16:20;8.50;84.70
39951;DHT22;25629;51.444;-2.606;2024-02-26T11:18:46;8.70;1.00
39951;DHT22;25629;51.444;-2.606;2024-02-26T11:21:15;8.80;1.00
39951;DHT22;25629;51.444;-2.606;2024-02-26T11:23:40;9.00;1.00
39951;DHT22;25629;51.444;-2.606;2024-02-26T11:26:06;9.40;99.90
39951;DHT22;25629;51.444;-2.606;2024-02-26T11:28:33;9.50;99.90
39951;DHT22;25629;51.444;-2.606;2024-02-26T11:30:59;9.50;99.90
39951;DHT22;25629;51.444;-2.606;2024-02-26T11:33:26;9.30;99.90
39951;DHT22;25629;51.444;-2.606;2024-02-26T11:35:51;9.00;99.90
39951;DHT22;25629;51.444;-2.606;2024-02-26T11:38:19;8.90;99.90
39951;DHT22;25629;51.444;-2.606;2024-02-26T11:40:46;8.80;99.90
39951;DHT22;25629;51.444;-2.606;2024-02-26T11:43:12;8.90;99.90
39951;DHT22;25629;51.444;-2.606;2024-02-26T11:48:03;9.10;99.90
39951;DHT22;25629;51.444;-2.606;2024-02-26T11:50:35;9.00;99.90
39951;DHT22;25629;51.444;-2.606;2024-02-26T11:55:46;8.80;99.90
39951;DHT22;25629;51.444;-2.606;2024-02-26T11:58:11;9.00;99.90
39951;DHT22;25629;51.444;-2.606;2024-02-26T12:00:39;8.90;99.90
39951;DHT22;25629;51.444;-2.606;2024-02-26T12:03:05;9.10;99.90
39951;DHT22;25629;51.444;-2.606;2024-02-26T12:05:34;9.20;99.90
39951;DHT22;25629;51.444;-2.606;2024-02-26T12:08:05;9.10;99.90
39951;DHT22;25629;51.444;-2.606;2024-02-26T12:10:32;9.20;99.90
39951;DHT22;25629;51.444;-2.606;2024-02-26T12:15:30;9.90;99.90
39951;DHT22;25629;51.444;-2.606;2024-02-26T12:17:56;10.40;99.90
39951;DHT22;25629;51.444;-2.606;2024-02-26T12:20:21;11.20;99.90
39951;DHT22;25629;51.444;-2.606;2024-02-26T12:22:49;11.50;1.00
39951;DHT22;25629;51.444;-2.606;2024-02-26T12:25:15;11.30;1.00
39951;DHT22;25629;51.444;-2.606;2024-02-26T12:27:41;11.00;1.00
39951;DHT22;25629;51.444;-2.606;2024-02-26T12:30:08;10.70;1.00
39951;DHT22;25629;51.444;-2.606;2024-02-26T12:32:34;10.80;1.00
39951;DHT22;25629;51.444;-2.606;2024-02-26T12:35:02;11.20;1.00
39951;DHT22;25629;51.444;-2.606;2024-02-26T12:37:28;11.40;1.00
39951;DHT22;25629;51.444;-2.606;2024-02-26T12:39:53;11.40;1.00
39951;DHT22;25629;51.444;-2.606;2024-02-26T12:42:19;11.50;1.00
39951;DHT22;25629;51.444;-2.606;2024-02-26T12:44:45;11.50;1.00
39951;DHT22;25629;51.444;-2.606;2024-02-26T12:47:11;11.50;1.00
39951;DHT22;25629;51.444;-2.606;2024-02-26T12:49:47;11.60;1.00
39951;DHT22;25629;51.444;-2.606;2024-02-26T12:52:14;11.80;1.00
39951;DHT22;25629;51.444;-2.606;2024-02-26T12:54:40;12.10;1.00
39951;DHT22;25629;51.444;-2.606;2024-02-26T12:57:07;12.70;1.00
39951;DHT22;25629;51.444;-2.606;2024-02-26T12:59:34;13.00;1.00
39951;DHT22;25629;51.444;-2.606;2024-02-26T13:02:00;13.20;1.00
39951;DHT22;25629;51.444;-2.606;2024-02-26T13:04:28;12.80;1.00
39951;DHT22;25629;51.444;-2.606;2024-02-26T13:06:54;12.50;1.00
39951;DHT22;25629;51.444;-2.606;2024-02-26T13:09:20;12.60;1.00
39951;DHT22;25629;51.444;-2.606;2024-02-26T13:11:53;12.20;1.00
39951;DHT22;25629;51.444;-2.606;2024-02-26T13:14:19;11.80;1.00
39951;DHT22;25629;51.444;-2.606;2024-02-26T13:16:53;11.70;1.00
39951;DHT22;25629;51.444;-2.606;2024-02-26T13:19:19;11.10;1.00
39951;DHT22;25629;51.444;-2.606;2024-02-26T13:21:45;10.70;1.00
39951;DHT22;25629;51.444;-2.606;2024-02-26T13:24:12;11.00;1.00
39951;DHT22;25629;51.444;-2.606;2024-02-26T13:26:38;11.60;1.00
39951;DHT22;25629;51.444;-2.606;2024-02-26T13:29:04;11.80;1.00
39951;DHT22;25629;51.444;-2.606;2024-02-26T13:31:30;11.80;1.00
39951;DHT22;25629;51.444;-2.606;2024-02-26T13:33:56;12.10;99.90
39951;DHT22;25629;51.444;-2.606;2024-02-26T13:36:22;12.60;99.90
39951;DHT22;25629;51.444;-2.606;2024-02-26T13:38:51;13.60;99.90
39951;DHT22;25629;51.444;-2.606;2024-02-26T13:41:18;13.50;99.90
39951;DHT22;25629;51.444;-2.606;2024-02-26T13:43:44;13.10;99.90
39951;DHT22;25629;51.444;-2.606;2024-02-26T13:46:10;12.70;99.90
39951;DHT22;25629;51.444;-2.606;2024-02-26T13:48:38;11.90;99.90
39951;DHT22;25629;51.444;-2.606;2024-02-26T13:51:03;11.40;99.90
39951;DHT22;25629;51.444;-2.606;2024-02-26T13:53:29;11.60;99.90
39951;DHT22;25629;51.444;-2.606;2024-02-26T13:55:55;11.70;99.90
39951;DHT22;25629;51.444;-2.606;2024-02-26T13:58:21;11.40;99.90
39951;DHT22;25629;51.444;-2.606;2024-02-26T14:00:49;11.40;99.90
39951;DHT22;25629;51.444;-2.606;2024-02-26T14:03:14;11.30;99.90
39951;DHT22;25629;51.444;-2.606;2024-02-26T14:05:41;11.20;99.90
39951;DHT22;25629;51.444;-2.606;2024-02-26T14:08:07;11.40;99.90
39951;DHT22;25629;51.444;-2.606;2024-02-26T14:10:33;11.60;99.90
39951;DHT22;25629;51.444;-2.606;2024-02-26T14:12:58;11.60;99.90
39951;DHT22;25629;51.444;-2.606;2024-02-26T14:15:24;11.40;99.90
39951;DHT22;25629;51.444;-2.606;2024-02-26T14:17:51;11.30;99.90
39951;DHT22;25629;51.444;-2.606;2024-02-26T14:20:24;11.40;99.90
39951;DHT22;25629;51.444;-2.606;2024-02-26T14:22:50;11.50;99.90
39951;DHT22;25629;51.444;-2.606;2024-02-26T14:25:19;11.40;99.90
39951;DHT22;25629;51.444;-2.606;2024-02-26T14:27:45;11.40;1.00
39951;DHT22;25629;51.444;-2.606;2024-02-26T14:30:11;11.10;1.00
39951;DHT22;25629;51.444;-2.606;2024-02-26T14:32:37;10.80;1.00
39951;DHT22;25629;51.444;-2.606;2024-02-26T14:35:12;10.40;1.00
39951;DHT22;25629;51.444;-2.606;2024-02-26T14:37:37;10.20;1.00
39951;DHT22;25629;51.444;-2.606;2024-02-26T14:40:03;10.50;1.00
39951;DHT22;25629;51.444;-2.606;2024-02-26T14:42:29;11.40;1.00
39951;DHT22;25629;51.444;-2.606;2024-02-26T14:44:55;12.60;1.00
39951;DHT22;25629;51.444;-2.606;2024-02-26T14:47:20;13.50;99.90
39951;DHT22;25629;51.444;-2.606;2024-02-26T14:49:46;13.90;99.90
39951;DHT22;25629;51.444;-2.606;2024-02-26T14:52:16;13.90;99.90
39951;DHT22;25629;51.444;-2.606;2024-02-26T14:54:42;13.00;99.90
39951;DHT22;25629;51.444;-2.606;2024-02-26T14:57:08;12.00;99.90
39951;DHT22;25629;51.444;-2.606;2024-02-26T14:59:33;11.50;99.90
39951;DHT22;25629;51.444;-2.606;2024-02-26T15:02:02;11.10;99.90
39951;DHT22;25629;51.444;-2.606;2024-02-26T15:04:27;10.80;99.90
39951;DHT22;25629;51.444;-2.606;2024-02-26T15:06:53;10.90;1.00
39951;DHT22;25629;51.444;-2.606;2024-02-26T15:09:18;11.10;1.00
39951;DHT22;25629;51.444;-2.606;2024-02-26T15:11:44;11.00;1.00
39951;DHT22;25629;51.444;-2.606;2024-02-26T15:14:10;10.70;1.00
39951;DHT22;25629;51.444;-2.606;2024-02-26T15:16:39;10.40;1.00
39951;DHT22;25629;51.444;-2.606;2024-02-26T15:19:05;10.30;1.00
39951;DHT22;25629;51.444;-2.606;2024-02-26T15:21:32;10.20;1.00
39951;DHT22;25629;51.444;-2.606;2024-02-26T15:23:58;10.20;1.00
39951;DHT22;25629;51.444;-2.606;2024-02-26T15:26:23;10.20;1.00
39951;DHT22;25629;51.444;-2.606;2024-02-26T15:28:50;10.30;1.00
39951;DHT22;25629;51.444;-2.606;2024-02-26T15:31:16;10.20;1.00
39951;DHT22;25629;51.444;-2.606;2024-02-26T15:33:42;10.00;1.00
39951;DHT22;25629;51.444;-2.606;2024-02-26T15:36:08;9.80;1.00